COOK1: Arkansas River Nr Coolidge, KS

                                SHEF ID:       COOK1     ARKANSAS R NR COOLIDGE, KS
STATION TYPE:
Regulating: Stage = 8.00, Flow = 2050

PRECIP STAGE STAGE(2) RIV-FLOW WTR-TEMP CONDUCT BAT-LOAD
in ft ft cfs F umho/cm volt
Ccp-Rev Ccp-Rev Ccp-Rev Ccp-Rev Ccp-Rev Ccp-Rev Ccp-Rev
(America/Chicago)
06/11 00:00 0.00 2.64 2.68 66 70.86 5769 12.95
06/11 01:00 0.00 2.62 2.66 64 69.76 5821 12.95
06/11 02:00 0.00 2.61 2.66 63 68.81 5866 12.89
06/11 03:00 0.00 2.60 2.64 63 67.89 5909 12.89
06/11 04:00 0.00 2.58 2.63 61 66.99 5958 12.89
06/11 05:00 0.00 2.58 2.62 61 66.09 6005 12.83
06/11 06:00 0.00 2.58 2.63 61 65.23 6039 12.83
06/11 07:00 0.00 2.58 2.63 61 64.49 6050 12.77
06/11 08:00 0.00 2.57 2.62 60 64.33 6052 12.83
06/11 09:00 0.00 2.59 2.63 62 65.01 6055 12.89
06/11 10:00 0.00 2.58 2.64 61 66.78 6052 13.18
06/11 11:00 0.00 2.59 2.63 62 69.24 6041 13.53
06/11 12:00 0.00 2.59 2.63 62 71.92 6046 13.71
06/11 13:00 0.00 2.60 2.64 63 74.57 6052 13.77
06/11 14:00 0.00 2.60 2.63 63 77.20 6053 13.71
06/11 15:00 0.00 2.60 2.64 63 79.47 6052 13.59
06/11 16:00 0.00 2.60 2.64 63 81.01 6048 13.65
06/11 17:00 0.00 2.61 2.63 63 81.93 6071 13.42
06/11 18:00 0.00 2.61 2.65 63 82.02 6088 13.30
06/11 19:00 0.00 2.61 2.64 63 81.36 6084 13.18
06/11 20:00 0.00 2.59 2.62 62 79.86 6077 13.18
06/11 21:00 0.00 2.58 2.61 61 78.08 6064 13.07
06/11 22:00 0.00 2.58 2.62 61 76.69 6071 13.00
06/11 23:00 0.00 2.55 2.62 58 75.58 6088 13.00
Data processed at Wed 12Jun2024 04:30 GMT

Parsing this webpage?

Checkout our new Data API! CWMSDataAPI (CDA)

Timeseries IDs (TSIDs)

TSIDs used from left to right in the data table
COOL.Precip-Inc.Total.1Hour.1Hour.Ccp-Rev
COOL.Stage.Inst.1Hour.0.Ccp-Rev
COOL.Stage-Alt.Inst.1Hour.0.Ccp-Rev
COOL.Flow.Inst.1Hour.0.Ccp-Rev
COOL.Temp-Water.Inst.1Hour.0.Ccp-Rev
COOL.Cond.Inst.1Hour.0.Ccp-Rev
COOL.Volt-Battery Load.Inst.1Hour.0.Ccp-Rev

                            

All information presented herein is the property of the government of the United States of America and may be revised or deleted at any time without prior notice. Dissemination of this information without the expressed written consent of the Public Affairs Office, Tulsa District U.S. Army Corps of Engineers is strictly prohibited. These data are gathered electronically and, as presented, have NOT undergone any form of quality control. These data are NOT guaranteed to be valid or correct.